Fulton, Iowa
Current Conditions -  °F | °C
As of 6:07 AM on Monday 24 Nov 2014 (Local Time) from KDBQ Reporting Station
Overcast Overcast  
Wind Chill: 22°   Ceiling: 1000
Heat Index: 33°   Visibility: 10mi
Dew Point: 31°   Wind: 17mph
Humidity: 92%   Direction: 300°WNW
Pressure: 29.18"   Gusts: 25mph
Location:  42.12°N, 90.7234°W
Report Text: KDBQ 241207Z 30015G22KT 10SM OVC010 01/M01 A2918 RMK AO2 CIG 008V013 T00061006 $
Loading
Personal Weather Stations






























Interactive Weather Map New forecast layout! Learn more

10-Day Weather Forecast

Advertisements
Track Severe Weather on mobile